createdAt,value
2019-01-14T00:01:04.374Z,3.27
2019-01-14T00:03:33.516Z,3.50
2019-01-14T00:06:02.325Z,2.90
2019-01-14T00:08:31.362Z,2.45
2019-01-14T00:11:00.363Z,2.77
2019-01-14T00:13:29.179Z,2.90
2019-01-14T00:15:57.913Z,2.67
2019-01-14T00:18:26.699Z,2.62
2019-01-14T00:20:55.515Z,2.37
2019-01-14T00:23:24.414Z,2.60
2019-01-14T00:25:53.511Z,2.30
2019-01-14T00:28:23.547Z,1.98
2019-01-14T00:30:52.439Z,2.37
2019-01-14T00:33:21.191Z,2.47
2019-01-14T00:35:50.479Z,2.80
2019-01-14T00:38:19.224Z,2.50
2019-01-14T00:40:47.974Z,2.47
2019-01-14T00:43:16.763Z,2.40
2019-01-14T00:45:45.459Z,2.60
2019-01-14T00:48:14.171Z,2.72
2019-01-14T00:50:42.895Z,2.47
2019-01-14T00:53:11.635Z,2.23
2019-01-14T00:55:40.391Z,2.30
2019-01-14T00:58:09.468Z,2.90
2019-01-14T01:00:38.322Z,2.57
2019-01-14T01:03:07.083Z,2.47
2019-01-14T01:05:36.207Z,2.90
2019-01-14T01:08:05.047Z,2.33
2019-01-14T01:10:33.955Z,2.50
2019-01-14T01:13:02.782Z,2.10
2019-01-14T01:15:31.670Z,2.62
2019-01-14T01:18:00.514Z,2.57
2019-01-14T01:20:30.062Z,2.52
2019-01-14T01:22:58.835Z,2.02
2019-01-14T01:25:27.622Z,1.45
2019-01-14T01:27:56.366Z,1.80
2019-01-14T01:30:25.587Z,1.60
2019-01-14T01:32:54.391Z,1.65
2019-01-14T01:35:23.099Z,1.93
2019-01-14T01:37:51.954Z,1.50
2019-01-14T01:40:21.879Z,1.43
2019-01-14T01:42:50.594Z,1.30
2019-01-14T01:45:19.798Z,1.92
2019-01-14T01:47:48.910Z,1.70
2019-01-14T01:50:19.206Z,1.60
2019-01-14T01:52:48.110Z,1.43
2019-01-14T01:55:17.203Z,1.47
2019-01-14T01:57:45.970Z,1.55
2019-01-14T02:00:18.186Z,1.80
2019-01-14T02:02:46.938Z,1.50
2019-01-14T02:05:15.795Z,1.80
2019-01-14T02:07:44.590Z,2.00
2019-01-14T02:10:15.998Z,1.70
2019-01-14T02:12:44.678Z,1.60
2019-01-14T02:15:14.426Z,1.82
2019-01-14T02:17:43.200Z,1.90
2019-01-14T02:20:13.258Z,1.77
2019-01-14T02:22:42.251Z,1.80
2019-01-14T02:25:11.359Z,1.77
2019-01-14T02:27:40.106Z,2.03
2019-01-14T02:30:11.595Z,2.02
2019-01-14T02:32:40.286Z,2.08
2019-01-14T02:35:09.275Z,2.33
2019-01-14T02:37:37.973Z,2.07
2019-01-14T02:40:08.286Z,1.73
2019-01-14T02:42:36.972Z,1.70
2019-01-14T02:45:05.934Z,1.77
2019-01-14T02:47:35.398Z,1.42
2019-01-14T02:50:04.486Z,1.30
2019-01-14T02:52:39.523Z,1.20
2019-01-14T02:55:02.331Z,1.22
2019-01-14T02:57:31.130Z,1.20
2019-01-14T02:59:59.854Z,1.70
2019-01-14T03:02:28.577Z,1.20
2019-01-14T03:04:57.326Z,1.00
2019-01-14T03:07:26.027Z,1.17
2019-01-14T03:09:54.713Z,0.88
2019-01-14T03:12:23.454Z,1.20
2019-01-14T03:14:52.136Z,1.40
2019-01-14T03:17:21.538Z,2.30
2019-01-14T03:19:50.246Z,2.37
2019-01-14T03:22:19.017Z,2.72
2019-01-14T03:24:47.697Z,3.70
2019-01-14T03:27:16.481Z,3.52
2019-01-14T03:29:45.205Z,4.33
2019-01-14T03:32:13.895Z,3.73
2019-01-14T03:34:42.601Z,3.62
2019-01-14T03:37:11.433Z,3.02
2019-01-14T03:39:40.181Z,2.10
2019-01-14T03:42:09.269Z,1.70
2019-01-14T03:44:38.056Z,1.95
2019-01-14T03:47:06.877Z,3.27
2019-01-14T03:49:35.638Z,2.53
2019-01-14T03:52:05.245Z,2.00
2019-01-14T03:54:34.137Z,2.90
2019-01-14T03:57:03.089Z,3.87
2019-01-14T03:59:31.893Z,4.15
2019-01-14T04:02:00.671Z,2.67
2019-01-14T04:04:29.381Z,2.87
2019-01-14T04:06:58.541Z,2.50
2019-01-14T04:09:27.202Z,1.35
2019-01-14T04:11:56.001Z,3.22
2019-01-14T04:14:25.408Z,3.47
2019-01-14T04:16:54.249Z,4.50
2019-01-14T04:19:23.016Z,4.17
2019-01-14T04:21:51.769Z,3.30
2019-01-14T04:24:20.540Z,3.90
2019-01-14T04:26:49.765Z,2.93
2019-01-14T04:29:18.481Z,1.50
2019-01-14T04:31:47.132Z,1.30
2019-01-14T04:34:15.776Z,0.77
2019-01-14T04:36:45.013Z,0.80
2019-01-14T04:39:13.876Z,0.68
2019-01-14T04:41:42.597Z,1.27
2019-01-14T04:44:11.418Z,1.10
2019-01-14T04:46:40.142Z,1.00
2019-01-14T04:49:08.800Z,1.20
2019-01-14T04:51:37.793Z,1.20
2019-01-14T04:54:06.509Z,1.00
2019-01-14T04:56:35.462Z,0.70
2019-01-14T04:59:04.334Z,1.20
2019-01-14T05:01:33.035Z,1.00
2019-01-14T05:04:02.028Z,1.23
2019-01-14T05:06:31.176Z,1.40
2019-01-14T05:09:00.132Z,0.93
2019-01-14T05:11:28.801Z,1.43
2019-01-14T05:13:57.497Z,1.07
2019-01-14T05:16:26.192Z,1.10
2019-01-14T05:18:54.766Z,0.90
2019-01-14T05:21:23.483Z,1.47
2019-01-14T05:23:52.144Z,1.70
2019-01-14T05:26:20.957Z,1.10
2019-01-14T05:28:49.812Z,1.07
2019-01-14T05:31:18.604Z,1.67
2019-01-14T05:33:47.428Z,2.00
2019-01-14T05:36:16.296Z,1.20
2019-01-14T05:38:45.596Z,1.80
2019-01-14T05:41:14.552Z,1.40
2019-01-14T05:43:43.428Z,1.77
2019-01-14T05:46:12.249Z,1.50
2019-01-14T05:48:41.191Z,1.40
2019-01-14T05:51:10.199Z,0.70
2019-01-14T05:53:38.971Z,0.90
2019-01-14T05:56:07.831Z,1.30
2019-01-14T05:58:36.616Z,1.57
2019-01-14T06:01:05.611Z,2.00
2019-01-14T06:03:34.583Z,2.33
2019-01-14T06:06:03.431Z,2.23
2019-01-14T06:08:32.528Z,1.65
2019-01-14T06:11:01.307Z,1.80
2019-01-14T06:13:30.535Z,2.13
2019-01-14T06:15:59.403Z,1.93
2019-01-14T06:18:28.442Z,2.50
2019-01-14T06:21:05.522Z,2.13
2019-01-14T06:23:34.303Z,1.40
2019-01-14T06:26:03.103Z,1.40
2019-01-14T06:28:31.760Z,1.30
2019-01-14T06:31:00.510Z,1.20
2019-01-14T06:33:29.532Z,1.53
2019-01-14T06:35:59.208Z,1.10
2019-01-14T06:38:27.559Z,1.20
2019-01-14T06:40:56.368Z,1.07
2019-01-14T06:43:25.310Z,1.53
2019-01-14T06:45:54.087Z,2.47
2019-01-14T06:48:22.867Z,2.33
2019-01-14T06:50:51.770Z,2.40
2019-01-14T06:53:20.934Z,2.33
2019-01-14T06:55:50.047Z,2.37
2019-01-14T06:58:18.942Z,1.77
2019-01-14T07:00:47.964Z,1.70
2019-01-14T07:03:16.718Z,2.47
2019-01-14T07:05:45.802Z,2.47
2019-01-14T07:08:14.639Z,2.23
2019-01-14T07:10:43.406Z,3.40
2019-01-14T07:13:12.330Z,2.00
2019-01-14T07:15:41.115Z,2.00
2019-01-14T07:18:10.263Z,1.70
2019-01-14T07:20:39.062Z,1.43
2019-01-14T07:23:08.907Z,1.67
2019-01-14T07:25:38.118Z,1.83
2019-01-14T07:28:06.954Z,2.07
2019-01-14T07:30:35.695Z,1.50
2019-01-14T07:33:04.491Z,1.70
2019-01-14T07:35:33.283Z,1.50
2019-01-14T07:38:06.669Z,1.70
2019-01-14T07:40:30.918Z,1.80
2019-01-14T07:42:59.674Z,1.40
2019-01-14T07:45:28.482Z,1.50
2019-01-14T07:47:58.853Z,1.10
2019-01-14T07:50:27.579Z,1.20
2019-01-14T07:52:56.452Z,1.53
2019-01-14T07:55:25.446Z,1.53
2019-01-14T07:57:54.506Z,1.10
2019-01-14T08:00:25.198Z,1.53
2019-01-14T08:02:54.374Z,1.07
2019-01-14T08:05:23.274Z,1.37
2019-01-14T08:07:52.092Z,1.83
2019-01-14T08:10:21.310Z,1.50
2019-01-14T08:12:50.427Z,1.93
2019-01-14T08:15:20.914Z,1.50
2019-01-14T08:17:49.698Z,1.60
2019-01-14T08:20:18.494Z,1.60
2019-01-14T08:22:47.630Z,1.90
2019-01-14T08:25:16.422Z,2.27
2019-01-14T08:27:45.178Z,1.60
2019-01-14T08:30:16.154Z,1.27
2019-01-14T08:32:44.918Z,1.03
2019-01-14T08:35:13.970Z,1.00
2019-01-14T08:37:43.778Z,1.17
2019-01-14T08:40:13.150Z,1.40
2019-01-14T08:42:42.166Z,1.37
2019-01-14T08:45:11.336Z,0.93
2019-01-14T08:47:40.407Z,1.27
2019-01-14T08:50:12.736Z,1.30
2019-01-14T08:52:41.474Z,1.37
2019-01-14T08:55:10.182Z,1.20
2019-01-14T08:57:38.894Z,1.20
2019-01-14T09:00:10.778Z,0.73
2019-01-14T09:02:39.573Z,1.43
2019-01-14T09:05:08.350Z,1.50
2019-01-14T09:07:37.406Z,1.83
2019-01-14T09:10:08.162Z,1.80
2019-01-14T09:12:36.810Z,1.60
2019-01-14T09:15:07.422Z,1.70
2019-01-14T09:17:36.455Z,1.47
2019-01-14T09:20:08.518Z,1.50
2019-01-14T09:22:37.298Z,1.07
2019-01-14T09:25:06.521Z,1.20
2019-01-14T09:27:35.238Z,1.77
2019-01-14T09:30:04.269Z,1.53
2019-01-14T09:32:32.999Z,1.30
2019-01-14T09:35:01.715Z,1.10
2019-01-14T09:37:30.481Z,1.47
2019-01-14T09:39:59.177Z,1.10
2019-01-14T09:42:38.270Z,0.90
2019-01-14T09:45:07.174Z,1.62
2019-01-14T09:47:35.882Z,1.60
2019-01-14T09:50:05.310Z,1.15
2019-01-14T09:52:34.309Z,1.63
2019-01-14T09:55:05.713Z,1.30
2019-01-14T09:57:31.885Z,1.43
2019-01-14T10:00:00.633Z,1.27
2019-01-14T10:02:29.281Z,1.40
2019-01-14T10:04:57.993Z,1.32
2019-01-14T10:07:26.685Z,1.77
2019-01-14T10:09:55.421Z,1.70
2019-01-14T10:12:24.105Z,1.40
2019-01-14T10:14:53.217Z,2.27
2019-01-14T10:17:25.445Z,1.77
2019-01-14T10:19:54.229Z,1.70
2019-01-14T10:22:22.987Z,1.70
2019-01-14T10:24:52.045Z,1.77
2019-01-14T10:27:20.769Z,1.93
2019-01-14T10:29:49.961Z,2.03
2019-01-14T10:32:18.657Z,2.30
2019-01-14T10:34:47.273Z,2.80
2019-01-14T10:37:22.644Z,2.10
2019-01-14T10:39:44.604Z,2.27
2019-01-14T10:42:13.286Z,1.80
2019-01-14T10:44:42.196Z,2.50
2019-01-14T10:47:10.925Z,1.70
2019-01-14T10:49:39.646Z,1.30
2019-01-14T10:52:08.350Z,1.52
2019-01-14T10:54:37.115Z,0.67
2019-01-14T10:57:07.646Z,0.97
2019-01-14T10:59:36.317Z,1.33
2019-01-14T11:02:05.093Z,0.80
2019-01-14T11:04:34.198Z,1.73
2019-01-14T11:07:02.962Z,1.60
2019-01-14T11:09:31.625Z,1.60
2019-01-14T11:12:00.331Z,1.53
2019-01-14T11:14:29.249Z,0.80
2019-01-14T11:16:57.965Z,1.50
2019-01-14T11:19:26.725Z,0.97
2019-01-14T11:21:55.417Z,1.40
2019-01-14T11:24:24.065Z,1.00
2019-01-14T11:26:52.781Z,1.00
2019-01-14T11:29:21.542Z,1.30
2019-01-14T11:31:50.299Z,1.53
2019-01-14T11:34:18.957Z,1.40
2019-01-14T11:36:47.606Z,0.80
2019-01-14T11:39:20.313Z,1.13
2019-01-14T11:41:50.325Z,1.20
2019-01-14T11:44:18.938Z,1.67
2019-01-14T11:46:47.593Z,2.07
2019-01-14T11:49:16.361Z,1.50
2019-01-14T11:51:45.316Z,1.80
2019-01-14T11:54:13.961Z,1.43
2019-01-14T11:56:42.641Z,1.53
2019-01-14T11:59:11.285Z,1.90
2019-01-14T12:01:39.989Z,1.50
2019-01-14T12:04:08.685Z,1.13
2019-01-14T12:06:37.297Z,1.90
2019-01-14T12:09:12.309Z,1.40
2019-01-14T12:11:38.657Z,1.40
2019-01-14T12:14:07.337Z,1.67
2019-01-14T12:16:36.101Z,1.57
2019-01-14T12:19:04.787Z,1.40
2019-01-14T12:21:33.433Z,2.00
2019-01-14T12:24:02.385Z,1.70
2019-01-14T12:26:31.082Z,1.40
2019-01-14T12:28:59.741Z,1.62
2019-01-14T12:31:28.423Z,1.90
2019-01-14T12:33:57.081Z,1.07
2019-01-14T12:36:26.354Z,1.57
2019-01-14T12:38:55.049Z,1.13
2019-01-14T12:41:23.669Z,1.40
2019-01-14T12:43:52.329Z,1.13
2019-01-14T12:46:21.024Z,1.60
2019-01-14T12:48:49.785Z,1.40
2019-01-14T12:51:18.418Z,1.30
2019-01-14T12:53:47.089Z,1.53
2019-01-14T12:56:16.097Z,1.40
2019-01-14T12:58:44.676Z,1.10
2019-01-14T13:01:13.385Z,1.50
2019-01-14T13:03:42.017Z,1.23
2019-01-14T13:06:10.704Z,1.57
2019-01-14T13:08:39.977Z,1.77
2019-01-14T13:11:08.565Z,1.95
2019-01-14T13:13:37.212Z,2.00
2019-01-14T13:16:05.936Z,2.10
2019-01-14T13:18:34.828Z,1.43
2019-01-14T13:21:03.688Z,1.40
2019-01-14T13:23:32.433Z,1.50
2019-01-14T13:26:00.969Z,1.27
2019-01-14T13:28:29.684Z,1.50
2019-01-14T13:30:58.365Z,1.00
2019-01-14T13:33:27.088Z,1.80
2019-01-14T13:35:55.749Z,1.77
2019-01-14T13:38:24.425Z,1.60
2019-01-14T13:40:54.692Z,1.80
2019-01-14T13:43:22.373Z,1.90
2019-01-14T13:45:52.470Z,2.20
2019-01-14T13:48:19.745Z,1.30
2019-01-14T13:50:48.327Z,2.43
2019-01-14T13:53:17.021Z,3.37
2019-01-14T13:55:46.467Z,1.83
2019-01-14T13:58:15.348Z,2.37
2019-01-14T14:00:44.224Z,2.37
2019-01-14T14:03:13.101Z,2.80
2019-01-14T14:05:42.669Z,2.37
2019-01-14T14:08:11.500Z,2.13
2019-01-14T14:10:40.736Z,1.70
2019-01-14T14:13:09.624Z,1.63
2019-01-14T14:15:38.901Z,2.33
2019-01-14T14:18:08.325Z,1.60
2019-01-14T14:20:44.816Z,1.50
2019-01-14T14:23:57.480Z,1.60
2019-01-14T14:26:26.574Z,1.50
2019-01-14T14:28:55.385Z,1.37
2019-01-14T14:31:24.201Z,2.13
2019-01-14T14:33:52.987Z,1.60
2019-01-14T14:36:22.409Z,1.83
2019-01-14T14:38:51.232Z,2.57
2019-01-14T14:41:20.247Z,3.57
2019-01-14T14:43:49.237Z,2.00
2019-01-14T14:46:34.953Z,2.73
2019-01-14T14:49:03.961Z,2.03
2019-01-14T14:51:32.768Z,2.03
2019-01-14T14:54:01.673Z,2.10
2019-01-14T14:56:48.109Z,2.27
2019-01-14T15:00:06.229Z,2.10
2019-01-14T15:02:36.112Z,2.00
2019-01-14T15:05:05.361Z,1.93
2019-01-14T15:07:34.237Z,2.30
2019-01-14T15:10:03.257Z,2.57
2019-01-14T15:12:32.011Z,2.57
2019-01-14T15:15:01.239Z,2.97
2019-01-14T15:17:30.099Z,2.23
2019-01-14T15:19:58.944Z,2.20
2019-01-14T15:22:28.025Z,1.70
2019-01-14T15:24:56.796Z,1.47
2019-01-14T15:27:25.621Z,2.33
2019-01-14T15:29:54.385Z,2.33
2019-01-14T15:32:23.156Z,2.47
2019-01-14T15:34:51.878Z,2.17
2019-01-14T15:37:20.920Z,2.50
2019-01-14T15:39:49.725Z,1.20
2019-01-14T15:42:18.308Z,3.00
2019-01-14T15:51:35.308Z,2.13
2019-01-14T15:54:03.815Z,2.80
2019-01-14T15:56:32.868Z,3.13
2019-01-14T15:59:01.816Z,2.37
2019-01-14T16:01:30.300Z,3.50
2019-01-14T16:03:58.928Z,2.37
2019-01-14T16:06:27.424Z,2.57
2019-01-14T16:08:55.944Z,3.10
2019-01-14T16:11:24.438Z,3.00
2019-01-14T16:13:53.668Z,4.20
2019-01-14T16:16:22.200Z,3.57
2019-01-14T16:18:50.916Z,3.53
2019-01-14T16:21:19.641Z,2.30
2019-01-14T16:23:48.285Z,3.00
2019-01-14T16:26:16.797Z,2.87
2019-01-14T16:28:45.556Z,2.43
2019-01-14T16:31:14.800Z,4.47
2019-01-14T16:33:43.316Z,3.13
2019-01-14T16:36:11.953Z,3.53
2019-01-14T16:38:40.709Z,2.93
2019-01-14T16:41:09.220Z,2.67
2019-01-14T16:43:37.720Z,3.00
2019-01-14T16:46:06.280Z,3.00
2019-01-14T16:48:34.856Z,2.33
2019-01-14T16:51:03.348Z,2.97
2019-01-14T16:53:31.900Z,3.63
2019-01-14T16:56:00.733Z,3.67
2019-01-14T16:58:29.233Z,3.43
2019-01-14T17:00:57.760Z,3.83
2019-01-14T17:03:26.287Z,3.30
2019-01-14T17:05:54.887Z,2.90
2019-01-14T17:08:23.463Z,3.50
2019-01-14T17:10:52.196Z,3.73
2019-01-14T17:13:20.983Z,3.33
2019-01-14T17:15:49.711Z,3.40
2019-01-14T17:18:18.215Z,3.13
2019-01-14T17:20:46.831Z,3.40
2019-01-14T17:23:16.151Z,3.57
2019-01-14T17:25:45.179Z,3.03
2019-01-14T17:28:14.351Z,3.43
2019-01-14T17:30:44.127Z,3.87
2019-01-14T17:33:12.923Z,4.73
2019-01-14T17:35:41.852Z,5.47
2019-01-14T17:38:10.779Z,5.97
2019-01-14T17:40:39.331Z,4.03
2019-01-14T17:43:07.987Z,3.97
2019-01-14T17:45:36.864Z,3.90
2019-01-14T17:48:05.471Z,3.67
2019-01-14T17:50:33.976Z,4.20
2019-01-14T17:53:02.576Z,3.80
2019-01-14T17:55:31.182Z,4.17
2019-01-14T17:57:59.769Z,3.93
2019-01-14T18:00:28.361Z,3.90
2019-01-14T18:02:56.906Z,3.53
2019-01-14T18:05:25.452Z,2.87
2019-01-14T18:07:54.005Z,3.10
2019-01-14T18:10:22.573Z,3.10
2019-01-14T18:12:51.100Z,3.30
2019-01-14T18:15:19.860Z,3.37
2019-01-14T18:17:48.380Z,3.33
2019-01-14T18:20:19.055Z,3.70
2019-01-14T18:22:47.882Z,3.40
2019-01-14T18:25:16.618Z,3.43
2019-01-14T18:27:45.871Z,3.87
2019-01-14T18:30:17.108Z,3.67
2019-01-14T18:32:45.812Z,3.27
2019-01-14T18:35:14.872Z,3.67
2019-01-14T18:37:43.491Z,3.20
2019-01-14T18:40:12.596Z,3.77
2019-01-14T18:42:41.498Z,3.60
2019-01-14T18:45:12.044Z,3.80
2019-01-14T18:47:41.176Z,3.53
2019-01-14T18:50:12.488Z,3.63
2019-01-14T18:52:41.220Z,3.40
2019-01-14T18:55:10.345Z,3.93
2019-01-14T18:57:38.903Z,4.30
2019-01-14T19:00:10.900Z,4.37
2019-01-14T19:02:39.708Z,4.07
2019-01-14T19:05:08.544Z,3.00
2019-01-14T19:07:37.160Z,3.13
2019-01-14T19:10:06.696Z,3.13
2019-01-14T19:12:35.331Z,2.47
2019-01-14T19:15:04.879Z,2.27
2019-01-14T19:17:33.383Z,3.00
2019-01-14T19:20:01.852Z,2.87
2019-01-14T19:22:30.374Z,2.90
2019-01-14T19:24:58.951Z,2.93
2019-01-14T19:27:27.415Z,3.73
2019-01-14T19:29:55.938Z,4.10
2019-01-14T19:32:24.902Z,4.30
2019-01-14T19:34:53.531Z,3.00
2019-01-14T19:37:23.745Z,3.20
2019-01-14T19:39:52.293Z,3.60
2019-01-14T19:42:21.339Z,2.60
2019-01-14T19:44:49.984Z,2.83
2019-01-14T19:47:18.908Z,3.37
2019-01-14T19:49:47.509Z,3.60
2019-01-14T19:52:16.201Z,3.37
2019-01-14T19:54:44.852Z,2.60
2019-01-14T19:57:13.864Z,3.23
2019-01-14T19:59:42.590Z,3.60
2019-01-14T20:02:11.313Z,3.17
2019-01-14T20:04:40.115Z,3.80
2019-01-14T20:07:11.104Z,3.10
2019-01-14T20:09:37.694Z,3.87
2019-01-14T20:12:06.346Z,3.37
2019-01-14T20:14:35.122Z,4.13
2019-01-14T20:17:03.730Z,5.47
2019-01-14T20:19:32.874Z,4.37
2019-01-14T20:22:01.571Z,4.23
2019-01-14T20:24:30.208Z,2.87
2019-01-14T20:26:58.910Z,2.30
2019-01-14T20:29:27.578Z,2.43
2019-01-14T20:31:56.106Z,1.93
2019-01-14T20:34:25.203Z,1.93
2019-01-14T20:36:53.754Z,2.03
2019-01-14T20:39:22.814Z,2.80
2019-01-14T20:41:51.795Z,2.10
2019-01-14T20:44:20.706Z,1.83
2019-01-14T20:46:49.246Z,1.50
2019-01-14T20:49:17.890Z,1.40
2019-01-14T20:51:46.653Z,1.47
2019-01-14T20:54:15.677Z,1.63
2019-01-14T20:56:44.441Z,1.10
2019-01-14T20:59:16.697Z,1.03
2019-01-14T21:01:45.590Z,0.90
2019-01-14T21:04:14.545Z,1.30
2019-01-14T21:06:43.098Z,1.13
2019-01-14T21:09:11.693Z,1.57
2019-01-14T21:11:40.243Z,1.50
2019-01-14T21:14:08.863Z,1.00
2019-01-14T21:16:37.575Z,1.03
2019-01-14T21:19:06.286Z,1.13
2019-01-14T21:21:35.090Z,1.63
2019-01-14T21:24:03.694Z,1.20
2019-01-14T21:26:32.401Z,1.63
2019-01-14T21:29:00.955Z,1.10
2019-01-14T21:31:29.639Z,0.83
2019-01-14T21:33:58.339Z,1.23
2019-01-14T21:36:27.472Z,1.00
2019-01-14T21:38:56.223Z,1.20
2019-01-14T21:41:31.127Z,1.70
2019-01-14T21:43:54.306Z,1.20
2019-01-14T21:46:22.942Z,1.73
2019-01-14T21:48:51.906Z,1.90
2019-01-14T21:51:20.578Z,1.50
2019-01-14T21:53:49.606Z,1.25
2019-01-14T21:56:18.530Z,1.30
2019-01-14T21:58:47.286Z,1.00
2019-01-14T22:01:16.135Z,1.07
2019-01-14T22:03:44.642Z,1.07
2019-01-14T22:06:13.530Z,1.00
2019-01-14T22:08:42.059Z,1.37
2019-01-14T22:11:11.015Z,1.47
2019-01-14T22:13:39.638Z,1.60
2019-01-14T22:16:08.434Z,2.00
2019-01-14T22:18:36.950Z,1.27
2019-01-14T22:21:05.534Z,1.20
2019-01-14T22:23:34.043Z,1.27
2019-01-14T22:26:02.593Z,1.70
2019-01-14T22:28:31.118Z,1.67
2019-01-14T22:30:59.680Z,1.37
2019-01-14T22:33:28.410Z,1.73
2019-01-14T22:35:57.302Z,3.40
2019-01-14T22:38:26.470Z,2.77
2019-01-14T22:40:55.261Z,1.00
2019-01-14T22:43:24.290Z,1.13
2019-01-14T22:45:53.022Z,1.53
2019-01-14T22:48:21.837Z,1.13
2019-01-14T22:50:51.694Z,2.17
2019-01-14T22:53:20.187Z,1.77
2019-01-14T22:55:48.810Z,1.60
2019-01-14T22:58:17.605Z,1.50
2019-01-14T23:01:57.718Z,1.82
2019-01-14T23:04:26.590Z,2.33
2019-01-14T23:06:55.067Z,1.60
2019-01-14T23:09:23.617Z,1.60
2019-01-14T23:11:53.191Z,1.13
2019-01-14T23:14:21.225Z,1.40
2019-01-14T23:16:50.126Z,1.62
2019-01-14T23:19:19.025Z,1.40
2019-01-14T23:21:47.658Z,1.47
2019-01-14T23:24:16.144Z,1.33
2019-01-14T23:26:44.685Z,1.30
2019-01-14T23:29:13.157Z,1.27
2019-01-14T23:31:41.953Z,1.77
2019-01-14T23:34:10.993Z,1.50
2019-01-14T23:36:39.522Z,1.40
2019-01-14T23:39:09.445Z,1.80
2019-01-14T23:41:38.030Z,1.60
2019-01-14T23:44:06.545Z,1.33
2019-01-14T23:46:38.608Z,1.53
2019-01-14T23:49:07.197Z,1.40
2019-01-14T23:51:35.941Z,1.30
2019-01-14T23:54:04.558Z,1.40
2019-01-14T23:56:33.074Z,1.50
2019-01-14T23:59:01.609Z,1.33
